sensor_id;sensor_type;location;lat;lon;timestamp;P1;durP1;ratioP1;P2;durP2;ratioP2
12585;SDS011;6358;50.760;0.282;2023-01-16T00:01:59;3.73;;;1.80;;
12585;SDS011;6358;50.760;0.282;2023-01-16T00:04:26;2.90;;;1.50;;
12585;SDS011;6358;50.760;0.282;2023-01-16T00:06:52;2.67;;;1.40;;
12585;SDS011;6358;50.760;0.282;2023-01-16T00:09:18;3.80;;;1.93;;
12585;SDS011;6358;50.760;0.282;2023-01-16T00:11:44;2.70;;;1.40;;
12585;SDS011;6358;50.760;0.282;2023-01-16T00:14:10;4.27;;;1.70;;
12585;SDS011;6358;50.760;0.282;2023-01-16T00:16:36;5.27;;;1.80;;
12585;SDS011;6358;50.760;0.282;2023-01-16T00:19:03;2.23;;;1.40;;
12585;SDS011;6358;50.760;0.282;2023-01-16T00:21:29;4.90;;;1.50;;
12585;SDS011;6358;50.760;0.282;2023-01-16T00:23:56;4.47;;;1.77;;
12585;SDS011;6358;50.760;0.282;2023-01-16T00:26:23;4.67;;;1.90;;
12585;SDS011;6358;50.760;0.282;2023-01-16T00:28:49;4.30;;;1.80;;
12585;SDS011;6358;50.760;0.282;2023-01-16T00:31:15;3.53;;;1.40;;
12585;SDS011;6358;50.760;0.282;2023-01-16T00:33:41;3.87;;;1.50;;
12585;SDS011;6358;50.760;0.282;2023-01-16T00:36:08;6.87;;;1.60;;
12585;SDS011;6358;50.760;0.282;2023-01-16T00:38:34;3.97;;;1.60;;
12585;SDS011;6358;50.760;0.282;2023-01-16T00:41:01;3.67;;;1.70;;
12585;SDS011;6358;50.760;0.282;2023-01-16T00:43:27;4.93;;;1.80;;
12585;SDS011;6358;50.760;0.282;2023-01-16T00:45:53;3.97;;;1.60;;
12585;SDS011;6358;50.760;0.282;2023-01-16T00:48:21;4.17;;;1.90;;
12585;SDS011;6358;50.760;0.282;2023-01-16T00:50:47;4.07;;;1.80;;
12585;SDS011;6358;50.760;0.282;2023-01-16T00:53:14;5.60;;;2.00;;
12585;SDS011;6358;50.760;0.282;2023-01-16T00:55:40;5.07;;;1.70;;
12585;SDS011;6358;50.760;0.282;2023-01-16T00:58:10;4.53;;;1.90;;
12585;SDS011;6358;50.760;0.282;2023-01-16T01:00:36;3.60;;;1.77;;
12585;SDS011;6358;50.760;0.282;2023-01-16T01:03:03;5.50;;;2.10;;
12585;SDS011;6358;50.760;0.282;2023-01-16T01:05:29;3.90;;;1.57;;
12585;SDS011;6358;50.760;0.282;2023-01-16T01:07:55;3.50;;;1.70;;
12585;SDS011;6358;50.760;0.282;2023-01-16T01:10:22;3.60;;;1.70;;
12585;SDS011;6358;50.760;0.282;2023-01-16T01:12:48;5.23;;;1.80;;
12585;SDS011;6358;50.760;0.282;2023-01-16T01:15:14;2.90;;;1.40;;
12585;SDS011;6358;50.760;0.282;2023-01-16T01:17:41;3.63;;;1.63;;
12585;SDS011;6358;50.760;0.282;2023-01-16T01:20:07;5.33;;;1.90;;
12585;SDS011;6358;50.760;0.282;2023-01-16T01:22:33;5.30;;;1.90;;
12585;SDS011;6358;50.760;0.282;2023-01-16T01:24:59;3.73;;;1.80;;
12585;SDS011;6358;50.760;0.282;2023-01-16T01:27:25;4.77;;;1.73;;
12585;SDS011;6358;50.760;0.282;2023-01-16T01:29:51;5.70;;;2.00;;
12585;SDS011;6358;50.760;0.282;2023-01-16T01:32:18;3.63;;;1.33;;
12585;SDS011;6358;50.760;0.282;2023-01-16T01:34:44;5.63;;;1.60;;
12585;SDS011;6358;50.760;0.282;2023-01-16T01:37:10;5.43;;;2.03;;
12585;SDS011;6358;50.760;0.282;2023-01-16T01:39:36;2.60;;;1.37;;
12585;SDS011;6358;50.760;0.282;2023-01-16T01:42:02;4.80;;;1.80;;
12585;SDS011;6358;50.760;0.282;2023-01-16T01:44:54;4.70;;;1.77;;
12585;SDS011;6358;50.760;0.282;2023-01-16T01:47:21;3.97;;;1.57;;
12585;SDS011;6358;50.760;0.282;2023-01-16T01:49:49;3.67;;;1.60;;
12585;SDS011;6358;50.760;0.282;2023-01-16T01:52:15;3.40;;;1.47;;
12585;SDS011;6358;50.760;0.282;2023-01-16T01:54:44;2.90;;;1.50;;
12585;SDS011;6358;50.760;0.282;2023-01-16T01:59:39;5.07;;;1.70;;
12585;SDS011;6358;50.760;0.282;2023-01-16T02:02:06;4.17;;;1.30;;
12585;SDS011;6358;50.760;0.282;2023-01-16T02:04:35;3.50;;;1.53;;
12585;SDS011;6358;50.760;0.282;2023-01-16T02:07:06;4.40;;;1.63;;
12585;SDS011;6358;50.760;0.282;2023-01-16T02:09:32;6.57;;;2.03;;
12585;SDS011;6358;50.760;0.282;2023-01-16T02:12:16;3.53;;;1.67;;
12585;SDS011;6358;50.760;0.282;2023-01-16T02:14:43;3.93;;;1.70;;
12585;SDS011;6358;50.760;0.282;2023-01-16T02:17:12;4.17;;;1.70;;
12585;SDS011;6358;50.760;0.282;2023-01-16T02:32:32;3.23;;;1.43;;
12585;SDS011;6358;50.760;0.282;2023-01-16T02:37:43;3.90;;;1.43;;
12585;SDS011;6358;50.760;0.282;2023-01-16T02:50:11;5.37;;;1.70;;
12585;SDS011;6358;50.760;0.282;2023-01-16T02:52:40;4.27;;;1.70;;
12585;SDS011;6358;50.760;0.282;2023-01-16T02:55:12;3.67;;;1.67;;
12585;SDS011;6358;50.760;0.282;2023-01-16T02:57:43;3.47;;;1.47;;
12585;SDS011;6358;50.760;0.282;2023-01-16T03:00:11;5.00;;;1.70;;
12585;SDS011;6358;50.760;0.282;2023-01-16T03:02:38;3.17;;;1.80;;
12585;SDS011;6358;50.760;0.282;2023-01-16T03:05:04;3.60;;;1.50;;
12585;SDS011;6358;50.760;0.282;2023-01-16T03:36:15;7.17;;;2.10;;
12585;SDS011;6358;50.760;0.282;2023-01-16T03:38:42;3.77;;;1.73;;
12585;SDS011;6358;50.760;0.282;2023-01-16T03:41:10;4.97;;;1.70;;
12585;SDS011;6358;50.760;0.282;2023-01-16T03:43:38;5.43;;;1.90;;
12585;SDS011;6358;50.760;0.282;2023-01-16T03:46:18;3.37;;;1.70;;
12585;SDS011;6358;50.760;0.282;2023-01-16T03:48:47;5.73;;;2.10;;
12585;SDS011;6358;50.760;0.282;2023-01-16T03:51:17;5.43;;;1.80;;
12585;SDS011;6358;50.760;0.282;2023-01-16T03:53:50;3.97;;;1.60;;
12585;SDS011;6358;50.760;0.282;2023-01-16T03:56:27;2.80;;;1.60;;
12585;SDS011;6358;50.760;0.282;2023-01-16T03:58:55;4.70;;;1.73;;
12585;SDS011;6358;50.760;0.282;2023-01-16T04:01:36;4.50;;;1.90;;
12585;SDS011;6358;50.760;0.282;2023-01-16T04:04:11;4.83;;;2.10;;
12585;SDS011;6358;50.760;0.282;2023-01-16T04:09:10;4.43;;;1.67;;
12585;SDS011;6358;50.760;0.282;2023-01-16T04:11:38;4.40;;;1.80;;
12585;SDS011;6358;50.760;0.282;2023-01-16T04:14:06;4.00;;;1.80;;
12585;SDS011;6358;50.760;0.282;2023-01-16T04:16:34;3.87;;;1.70;;
12585;SDS011;6358;50.760;0.282;2023-01-16T04:19:00;3.93;;;1.67;;
12585;SDS011;6358;50.760;0.282;2023-01-16T04:21:27;3.60;;;1.70;;
12585;SDS011;6358;50.760;0.282;2023-01-16T04:23:56;6.37;;;2.00;;
12585;SDS011;6358;50.760;0.282;2023-01-16T04:26:24;4.17;;;1.83;;
12585;SDS011;6358;50.760;0.282;2023-01-16T04:28:50;6.73;;;2.27;;
12585;SDS011;6358;50.760;0.282;2023-01-16T04:31:21;3.53;;;1.70;;
12585;SDS011;6358;50.760;0.282;2023-01-16T04:33:47;5.23;;;2.13;;
12585;SDS011;6358;50.760;0.282;2023-01-16T04:36:13;5.20;;;1.97;;
12585;SDS011;6358;50.760;0.282;2023-01-16T04:38:40;4.57;;;2.00;;
12585;SDS011;6358;50.760;0.282;2023-01-16T04:41:06;5.23;;;1.80;;
12585;SDS011;6358;50.760;0.282;2023-01-16T04:43:32;5.17;;;1.80;;
12585;SDS011;6358;50.760;0.282;2023-01-16T04:45:58;5.20;;;2.20;;
12585;SDS011;6358;50.760;0.282;2023-01-16T04:48:24;4.53;;;2.07;;
12585;SDS011;6358;50.760;0.282;2023-01-16T04:50:50;5.73;;;2.50;;
12585;SDS011;6358;50.760;0.282;2023-01-16T04:53:16;4.20;;;1.90;;
12585;SDS011;6358;50.760;0.282;2023-01-16T04:55:42;4.80;;;1.80;;
12585;SDS011;6358;50.760;0.282;2023-01-16T04:58:09;5.07;;;2.00;;
12585;SDS011;6358;50.760;0.282;2023-01-16T05:00:35;5.07;;;2.00;;
12585;SDS011;6358;50.760;0.282;2023-01-16T05:03:01;4.13;;;1.60;;
12585;SDS011;6358;50.760;0.282;2023-01-16T05:05:27;4.00;;;1.80;;
12585;SDS011;6358;50.760;0.282;2023-01-16T05:07:53;5.73;;;1.83;;
12585;SDS011;6358;50.760;0.282;2023-01-16T05:10:45;5.03;;;1.90;;
12585;SDS011;6358;50.760;0.282;2023-01-16T05:13:11;3.33;;;1.67;;
12585;SDS011;6358;50.760;0.282;2023-01-16T05:15:38;3.97;;;1.97;;
12585;SDS011;6358;50.760;0.282;2023-01-16T05:18:04;3.27;;;1.77;;
12585;SDS011;6358;50.760;0.282;2023-01-16T05:20:30;3.20;;;1.80;;
12585;SDS011;6358;50.760;0.282;2023-01-16T05:22:56;4.37;;;1.60;;
12585;SDS011;6358;50.760;0.282;2023-01-16T05:25:22;2.73;;;1.70;;
12585;SDS011;6358;50.760;0.282;2023-01-16T05:27:49;6.07;;;2.10;;
12585;SDS011;6358;50.760;0.282;2023-01-16T05:30:15;4.40;;;1.90;;
12585;SDS011;6358;50.760;0.282;2023-01-16T05:32:42;2.87;;;1.33;;
12585;SDS011;6358;50.760;0.282;2023-01-16T05:35:08;3.37;;;1.53;;
12585;SDS011;6358;50.760;0.282;2023-01-16T05:37:35;2.73;;;1.43;;
12585;SDS011;6358;50.760;0.282;2023-01-16T05:40:01;4.63;;;1.83;;
12585;SDS011;6358;50.760;0.282;2023-01-16T05:42:27;2.87;;;1.50;;
12585;SDS011;6358;50.760;0.282;2023-01-16T05:44:53;3.90;;;1.63;;
12585;SDS011;6358;50.760;0.282;2023-01-16T05:47:20;3.97;;;1.60;;
12585;SDS011;6358;50.760;0.282;2023-01-16T05:49:46;4.70;;;1.67;;
12585;SDS011;6358;50.760;0.282;2023-01-16T05:52:12;4.27;;;1.67;;
12585;SDS011;6358;50.760;0.282;2023-01-16T05:54:38;3.67;;;1.60;;
12585;SDS011;6358;50.760;0.282;2023-01-16T05:57:04;2.30;;;1.50;;
12585;SDS011;6358;50.760;0.282;2023-01-16T05:59:31;3.03;;;1.60;;
12585;SDS011;6358;50.760;0.282;2023-01-16T06:01:57;3.27;;;1.40;;
12585;SDS011;6358;50.760;0.282;2023-01-16T06:04:23;2.63;;;1.30;;
12585;SDS011;6358;50.760;0.282;2023-01-16T06:06:49;3.07;;;1.40;;
12585;SDS011;6358;50.760;0.282;2023-01-16T06:09:16;2.13;;;1.27;;
12585;SDS011;6358;50.760;0.282;2023-01-16T06:11:42;2.53;;;1.30;;
12585;SDS011;6358;50.760;0.282;2023-01-16T06:14:08;1.93;;;1.27;;
12585;SDS011;6358;50.760;0.282;2023-01-16T06:16:34;1.83;;;1.20;;
12585;SDS011;6358;50.760;0.282;2023-01-16T06:19:01;2.60;;;1.30;;
12585;SDS011;6358;50.760;0.282;2023-01-16T06:21:27;3.17;;;1.50;;
12585;SDS011;6358;50.760;0.282;2023-01-16T06:23:53;1.60;;;1.03;;
12585;SDS011;6358;50.760;0.282;2023-01-16T06:26:19;2.23;;;1.10;;
12585;SDS011;6358;50.760;0.282;2023-01-16T06:28:46;1.40;;;0.90;;
12585;SDS011;6358;50.760;0.282;2023-01-16T06:31:12;2.10;;;1.10;;
12585;SDS011;6358;50.760;0.282;2023-01-16T06:33:38;1.33;;;0.90;;
12585;SDS011;6358;50.760;0.282;2023-01-16T06:36:04;1.27;;;1.00;;
12585;SDS011;6358;50.760;0.282;2023-01-16T06:38:30;2.00;;;0.93;;
12585;SDS011;6358;50.760;0.282;2023-01-16T06:40:56;1.67;;;0.93;;
12585;SDS011;6358;50.760;0.282;2023-01-16T06:43:25;1.27;;;1.00;;
12585;SDS011;6358;50.760;0.282;2023-01-16T06:45:52;1.30;;;1.00;;
12585;SDS011;6358;50.760;0.282;2023-01-16T06:48:18;1.30;;;1.03;;
12585;SDS011;6358;50.760;0.282;2023-01-16T06:50:45;1.30;;;0.87;;
12585;SDS011;6358;50.760;0.282;2023-01-16T06:53:11;1.30;;;0.70;;
12585;SDS011;6358;50.760;0.282;2023-01-16T06:55:38;0.90;;;0.70;;
12585;SDS011;6358;50.760;0.282;2023-01-16T06:58:04;1.30;;;0.70;;
12585;SDS011;6358;50.760;0.282;2023-01-16T07:00:30;1.17;;;1.00;;
12585;SDS011;6358;50.760;0.282;2023-01-16T07:02:56;1.27;;;0.80;;
12585;SDS011;6358;50.760;0.282;2023-01-16T07:05:23;1.43;;;0.77;;
12585;SDS011;6358;50.760;0.282;2023-01-16T07:07:49;0.87;;;0.70;;
12585;SDS011;6358;50.760;0.282;2023-01-16T07:10:16;0.90;;;0.60;;
12585;SDS011;6358;50.760;0.282;2023-01-16T07:12:42;1.50;;;0.60;;
12585;SDS011;6358;50.760;0.282;2023-01-16T07:15:09;3.43;;;1.00;;
12585;SDS011;6358;50.760;0.282;2023-01-16T07:17:54;0.93;;;0.50;;
12585;SDS011;6358;50.760;0.282;2023-01-16T07:20:53;0.70;;;0.57;;
12585;SDS011;6358;50.760;0.282;2023-01-16T07:23:40;1.43;;;0.70;;
12585;SDS011;6358;50.760;0.282;2023-01-16T07:26:07;1.30;;;0.90;;
12585;SDS011;6358;50.760;0.282;2023-01-16T07:28:33;0.60;;;0.60;;
12585;SDS011;6358;50.760;0.282;2023-01-16T07:31:00;0.73;;;0.47;;
12585;SDS011;6358;50.760;0.282;2023-01-16T07:33:28;0.60;;;0.60;;
12585;SDS011;6358;50.760;0.282;2023-01-16T07:35:54;0.63;;;0.50;;
12585;SDS011;6358;50.760;0.282;2023-01-16T07:38:20;1.03;;;0.43;;
12585;SDS011;6358;50.760;0.282;2023-01-16T07:40:47;4.00;;;0.50;;
12585;SDS011;6358;50.760;0.282;2023-01-16T07:43:13;0.57;;;0.50;;
12585;SDS011;6358;50.760;0.282;2023-01-16T07:45:39;0.40;;;0.40;;
12585;SDS011;6358;50.760;0.282;2023-01-16T07:48:05;0.50;;;0.40;;
12585;SDS011;6358;50.760;0.282;2023-01-16T07:50:31;0.50;;;0.40;;
12585;SDS011;6358;50.760;0.282;2023-01-16T07:52:57;0.47;;;0.47;;
12585;SDS011;6358;50.760;0.282;2023-01-16T07:55:23;0.60;;;0.30;;
12585;SDS011;6358;50.760;0.282;2023-01-16T07:57:50;0.63;;;0.50;;
12585;SDS011;6358;50.760;0.282;2023-01-16T08:00:16;0.33;;;0.30;;
12585;SDS011;6358;50.760;0.282;2023-01-16T08:02:42;0.97;;;0.40;;
12585;SDS011;6358;50.760;0.282;2023-01-16T08:05:09;0.73;;;0.50;;
12585;SDS011;6358;50.760;0.282;2023-01-16T08:07:35;0.37;;;0.30;;
12585;SDS011;6358;50.760;0.282;2023-01-16T08:10:02;0.30;;;0.30;;
12585;SDS011;6358;50.760;0.282;2023-01-16T08:12:28;1.13;;;0.50;;
12585;SDS011;6358;50.760;0.282;2023-01-16T08:14:54;0.30;;;0.23;;
12585;SDS011;6358;50.760;0.282;2023-01-16T08:17:20;0.97;;;0.50;;
12585;SDS011;6358;50.760;0.282;2023-01-16T08:19:46;1.43;;;0.40;;
12585;SDS011;6358;50.760;0.282;2023-01-16T08:22:12;1.50;;;0.50;;
12585;SDS011;6358;50.760;0.282;2023-01-16T08:24:38;0.90;;;0.63;;
12585;SDS011;6358;50.760;0.282;2023-01-16T08:27:04;1.40;;;0.57;;
12585;SDS011;6358;50.760;0.282;2023-01-16T08:29:31;1.03;;;0.40;;
12585;SDS011;6358;50.760;0.282;2023-01-16T08:31:57;0.90;;;0.50;;
12585;SDS011;6358;50.760;0.282;2023-01-16T08:34:23;0.53;;;0.30;;
12585;SDS011;6358;50.760;0.282;2023-01-16T08:36:49;0.40;;;0.40;;
12585;SDS011;6358;50.760;0.282;2023-01-16T08:39:15;0.93;;;0.30;;
12585;SDS011;6358;50.760;0.282;2023-01-16T08:41:41;1.17;;;0.20;;
12585;SDS011;6358;50.760;0.282;2023-01-16T08:44:26;1.23;;;0.50;;
12585;SDS011;6358;50.760;0.282;2023-01-16T08:47:14;1.50;;;0.70;;
12585;SDS011;6358;50.760;0.282;2023-01-16T08:50:02;3.43;;;1.13;;
12585;SDS011;6358;50.760;0.282;2023-01-16T08:52:47;4.37;;;1.60;;
12585;SDS011;6358;50.760;0.282;2023-01-16T08:55:13;3.60;;;2.07;;
12585;SDS011;6358;50.760;0.282;2023-01-16T08:57:39;2.17;;;1.90;;
12585;SDS011;6358;50.760;0.282;2023-01-16T09:00:06;2.90;;;1.93;;
12585;SDS011;6358;50.760;0.282;2023-01-16T09:02:32;2.50;;;2.30;;
12585;SDS011;6358;50.760;0.282;2023-01-16T09:05:01;5.50;;;4.60;;
12585;SDS011;6358;50.760;0.282;2023-01-16T09:07:27;8.57;;;7.63;;
12585;SDS011;6358;50.760;0.282;2023-01-16T09:09:54;11.87;;;9.77;;
12585;SDS011;6358;50.760;0.282;2023-01-16T09:12:20;12.10;;;10.77;;
12585;SDS011;6358;50.760;0.282;2023-01-16T09:15:05;12.63;;;11.33;;
12585;SDS011;6358;50.760;0.282;2023-01-16T09:17:31;13.77;;;11.17;;
12585;SDS011;6358;50.760;0.282;2023-01-16T09:19:57;12.27;;;11.07;;
12585;SDS011;6358;50.760;0.282;2023-01-16T09:22:25;11.97;;;10.70;;
12585;SDS011;6358;50.760;0.282;2023-01-16T09:24:51;11.67;;;10.47;;
12585;SDS011;6358;50.760;0.282;2023-01-16T09:27:18;10.77;;;9.67;;
12585;SDS011;6358;50.760;0.282;2023-01-16T09:29:44;10.53;;;9.00;;
12585;SDS011;6358;50.760;0.282;2023-01-16T09:32:10;10.10;;;9.03;;
12585;SDS011;6358;50.760;0.282;2023-01-16T09:34:37;9.67;;;8.60;;
12585;SDS011;6358;50.760;0.282;2023-01-16T09:37:04;8.20;;;7.33;;
12585;SDS011;6358;50.760;0.282;2023-01-16T09:39:31;7.87;;;7.07;;
12585;SDS011;6358;50.760;0.282;2023-01-16T09:42:21;7.40;;;6.60;;
12585;SDS011;6358;50.760;0.282;2023-01-16T09:45:11;8.13;;;6.40;;
12585;SDS011;6358;50.760;0.282;2023-01-16T09:47:40;9.13;;;6.10;;
12585;SDS011;6358;50.760;0.282;2023-01-16T09:50:30;6.10;;;5.50;;
12585;SDS011;6358;50.760;0.282;2023-01-16T09:52:58;5.20;;;4.70;;
12585;SDS011;6358;50.760;0.282;2023-01-16T09:55:48;5.00;;;4.50;;
12585;SDS011;6358;50.760;0.282;2023-01-16T09:58:33;5.77;;;4.67;;
12585;SDS011;6358;50.760;0.282;2023-01-16T10:01:03;5.90;;;4.60;;
12585;SDS011;6358;50.760;0.282;2023-01-16T10:03:29;4.17;;;3.77;;
12585;SDS011;6358;50.760;0.282;2023-01-16T10:05:58;5.63;;;4.13;;
12585;SDS011;6358;50.760;0.282;2023-01-16T10:08:31;5.10;;;3.50;;
12585;SDS011;6358;50.760;0.282;2023-01-16T10:11:14;4.57;;;3.77;;
12585;SDS011;6358;50.760;0.282;2023-01-16T10:13:46;4.10;;;3.63;;
12585;SDS011;6358;50.760;0.282;2023-01-16T10:24:00;4.83;;;3.47;;
12585;SDS011;6358;50.760;0.282;2023-01-16T10:29:07;3.63;;;3.03;;
12585;SDS011;6358;50.760;0.282;2023-01-16T10:31:58;4.13;;;3.17;;
12585;SDS011;6358;50.760;0.282;2023-01-16T10:36:59;4.97;;;2.93;;
12585;SDS011;6358;50.760;0.282;2023-01-16T10:39:30;5.07;;;3.10;;
12585;SDS011;6358;50.760;0.282;2023-01-16T10:42:17;5.30;;;3.30;;
12585;SDS011;6358;50.760;0.282;2023-01-16T10:47:50;5.03;;;3.20;;
12585;SDS011;6358;50.760;0.282;2023-01-16T10:50:35;3.30;;;2.83;;
12585;SDS011;6358;50.760;0.282;2023-01-16T10:53:02;6.77;;;2.90;;
12585;SDS011;6358;50.760;0.282;2023-01-16T10:55:29;6.60;;;2.70;;
12585;SDS011;6358;50.760;0.282;2023-01-16T10:57:57;3.87;;;2.70;;
12585;SDS011;6358;50.760;0.282;2023-01-16T11:00:25;3.93;;;2.57;;
12585;SDS011;6358;50.760;0.282;2023-01-16T11:02:59;5.40;;;2.90;;
12585;SDS011;6358;50.760;0.282;2023-01-16T11:05:30;3.87;;;2.73;;
12585;SDS011;6358;50.760;0.282;2023-01-16T11:08:09;11.57;;;2.67;;
12585;SDS011;6358;50.760;0.282;2023-01-16T11:10:36;5.03;;;2.50;;
12585;SDS011;6358;50.760;0.282;2023-01-16T11:13:02;4.17;;;2.53;;
12585;SDS011;6358;50.760;0.282;2023-01-16T11:16:00;7.27;;;2.90;;
12585;SDS011;6358;50.760;0.282;2023-01-16T11:18:45;6.93;;;2.40;;
12585;SDS011;6358;50.760;0.282;2023-01-16T11:21:23;3.90;;;2.30;;
12585;SDS011;6358;50.760;0.282;2023-01-16T11:26:37;4.27;;;2.03;;
12585;SDS011;6358;50.760;0.282;2023-01-16T11:29:03;5.87;;;2.37;;
12585;SDS011;6358;50.760;0.282;2023-01-16T11:31:29;3.43;;;2.17;;
12585;SDS011;6358;50.760;0.282;2023-01-16T11:34:00;3.40;;;1.80;;
12585;SDS011;6358;50.760;0.282;2023-01-16T11:36:30;5.00;;;2.20;;
12585;SDS011;6358;50.760;0.282;2023-01-16T11:38:56;2.00;;;1.80;;
12585;SDS011;6358;50.760;0.282;2023-01-16T11:41:24;3.80;;;2.20;;
12585;SDS011;6358;50.760;0.282;2023-01-16T11:46:57;2.47;;;1.77;;
12585;SDS011;6358;50.760;0.282;2023-01-16T11:49:24;3.90;;;1.80;;
12585;SDS011;6358;50.760;0.282;2023-01-16T11:51:54;2.30;;;1.50;;
12585;SDS011;6358;50.760;0.282;2023-01-16T11:54:24;2.97;;;1.77;;
12585;SDS011;6358;50.760;0.282;2023-01-16T12:04:36;2.97;;;1.70;;
12585;SDS011;6358;50.760;0.282;2023-01-16T12:14:49;2.57;;;1.70;;
12585;SDS011;6358;50.760;0.282;2023-01-16T12:25:19;2.40;;;1.33;;
12585;SDS011;6358;50.760;0.282;2023-01-16T12:30:37;1.87;;;1.50;;
12585;SDS011;6358;50.760;0.282;2023-01-16T12:33:13;1.40;;;1.30;;
12585;SDS011;6358;50.760;0.282;2023-01-16T12:36:03;1.20;;;1.10;;
12585;SDS011;6358;50.760;0.282;2023-01-16T12:38:35;1.40;;;1.30;;
12585;SDS011;6358;50.760;0.282;2023-01-16T12:41:12;2.00;;;1.60;;
12585;SDS011;6358;50.760;0.282;2023-01-16T12:44:14;1.50;;;1.40;;
12585;SDS011;6358;50.760;0.282;2023-01-16T12:46:47;2.90;;;1.30;;
12585;SDS011;6358;50.760;0.282;2023-01-16T12:59:47;1.50;;;1.23;;
12585;SDS011;6358;50.760;0.282;2023-01-16T13:02:19;3.83;;;1.47;;
12585;SDS011;6358;50.760;0.282;2023-01-16T13:05:00;1.90;;;1.50;;
12585;SDS011;6358;50.760;0.282;2023-01-16T13:07:29;1.87;;;1.40;;
12585;SDS011;6358;50.760;0.282;2023-01-16T13:12:48;1.77;;;1.33;;
12585;SDS011;6358;50.760;0.282;2023-01-16T13:15:34;2.20;;;1.13;;
12585;SDS011;6358;50.760;0.282;2023-01-16T13:20:40;1.40;;;1.30;;
12585;SDS011;6358;50.760;0.282;2023-01-16T13:23:14;3.10;;;1.50;;
12585;SDS011;6358;50.760;0.282;2023-01-16T13:25:44;1.40;;;1.30;;
12585;SDS011;6358;50.760;0.282;2023-01-16T13:30:39;1.43;;;1.27;;
12585;SDS011;6358;50.760;0.282;2023-01-16T13:33:10;2.37;;;1.30;;
12585;SDS011;6358;50.760;0.282;2023-01-16T13:35:53;1.80;;;1.40;;
12585;SDS011;6358;50.760;0.282;2023-01-16T13:38:31;2.30;;;1.20;;
12585;SDS011;6358;50.760;0.282;2023-01-16T13:43:33;2.10;;;1.40;;
12585;SDS011;6358;50.760;0.282;2023-01-16T13:46:19;1.37;;;1.20;;
12585;SDS011;6358;50.760;0.282;2023-01-16T13:48:51;1.47;;;1.33;;
12585;SDS011;6358;50.760;0.282;2023-01-16T13:51:18;1.87;;;1.40;;
12585;SDS011;6358;50.760;0.282;2023-01-16T13:53:49;3.37;;;1.40;;
12585;SDS011;6358;50.760;0.282;2023-01-16T13:56:21;3.43;;;1.30;;
12585;SDS011;6358;50.760;0.282;2023-01-16T13:59:13;2.70;;;1.40;;
12585;SDS011;6358;50.760;0.282;2023-01-16T14:06:46;5.13;;;2.43;;
12585;SDS011;6358;50.760;0.282;2023-01-16T14:09:22;6.03;;;2.13;;
12585;SDS011;6358;50.760;0.282;2023-01-16T14:17:04;8.47;;;2.60;;
12585;SDS011;6358;50.760;0.282;2023-01-16T14:19:34;4.83;;;1.97;;
12585;SDS011;6358;50.760;0.282;2023-01-16T14:22:02;2.17;;;1.50;;
12585;SDS011;6358;50.760;0.282;2023-01-16T14:24:45;4.87;;;1.77;;
12585;SDS011;6358;50.760;0.282;2023-01-16T14:27:13;2.13;;;1.50;;
12585;SDS011;6358;50.760;0.282;2023-01-16T14:29:49;3.50;;;1.80;;
12585;SDS011;6358;50.760;0.282;2023-01-16T14:32:18;4.07;;;1.70;;
12585;SDS011;6358;50.760;0.282;2023-01-16T14:34:57;4.07;;;1.60;;
12585;SDS011;6358;50.760;0.282;2023-01-16T14:39:54;3.47;;;1.70;;
12585;SDS011;6358;50.760;0.282;2023-01-16T14:42:26;2.57;;;1.60;;
12585;SDS011;6358;50.760;0.282;2023-01-16T14:45:21;2.00;;;1.60;;
12585;SDS011;6358;50.760;0.282;2023-01-16T14:50:59;2.67;;;1.50;;
12585;SDS011;6358;50.760;0.282;2023-01-16T14:53:49;2.57;;;1.73;;
12585;SDS011;6358;50.760;0.282;2023-01-16T14:56:36;2.57;;;1.60;;
12585;SDS011;6358;50.760;0.282;2023-01-16T15:01:33;3.47;;;1.83;;
12585;SDS011;6358;50.760;0.282;2023-01-16T15:04:21;2.80;;;1.73;;
12585;SDS011;6358;50.760;0.282;2023-01-16T15:06:55;1.93;;;1.50;;
12585;SDS011;6358;50.760;0.282;2023-01-16T15:09:23;1.87;;;1.43;;
12585;SDS011;6358;50.760;0.282;2023-01-16T15:12:11;2.43;;;1.60;;
12585;SDS011;6358;50.760;0.282;2023-01-16T15:14:38;3.57;;;1.63;;
12585;SDS011;6358;50.760;0.282;2023-01-16T15:20:22;3.53;;;1.70;;
12585;SDS011;6358;50.760;0.282;2023-01-16T15:23:00;1.47;;;1.37;;
12585;SDS011;6358;50.760;0.282;2023-01-16T15:30:38;1.40;;;1.30;;
12585;SDS011;6358;50.760;0.282;2023-01-16T15:33:09;1.50;;;1.40;;
12585;SDS011;6358;50.760;0.282;2023-01-16T15:36:22;1.87;;;1.50;;
12585;SDS011;6358;50.760;0.282;2023-01-16T15:38:50;1.70;;;1.40;;
12585;SDS011;6358;50.760;0.282;2023-01-16T15:41:19;2.90;;;1.50;;
12585;SDS011;6358;50.760;0.282;2023-01-16T15:44:08;1.60;;;1.40;;
12585;SDS011;6358;50.760;0.282;2023-01-16T15:47:14;1.93;;;1.40;;
12585;SDS011;6358;50.760;0.282;2023-01-16T15:52:17;2.27;;;1.50;;
12585;SDS011;6358;50.760;0.282;2023-01-16T15:54:43;1.30;;;1.20;;
12585;SDS011;6358;50.760;0.282;2023-01-16T15:57:15;1.37;;;1.27;;
12585;SDS011;6358;50.760;0.282;2023-01-16T15:59:53;3.00;;;1.30;;
12585;SDS011;6358;50.760;0.282;2023-01-16T16:02:23;1.40;;;1.27;;
12585;SDS011;6358;50.760;0.282;2023-01-16T16:04:56;2.50;;;1.30;;
12585;SDS011;6358;50.760;0.282;2023-01-16T16:07:24;1.53;;;1.20;;
12585;SDS011;6358;50.760;0.282;2023-01-16T16:09:52;2.50;;;1.50;;
12585;SDS011;6358;50.760;0.282;2023-01-16T16:12:19;1.27;;;1.17;;
12585;SDS011;6358;50.760;0.282;2023-01-16T16:14:46;1.83;;;1.37;;
12585;SDS011;6358;50.760;0.282;2023-01-16T16:17:32;1.30;;;1.20;;
12585;SDS011;6358;50.760;0.282;2023-01-16T16:22:53;1.47;;;1.10;;
12585;SDS011;6358;50.760;0.282;2023-01-16T16:27:50;1.27;;;1.00;;
12585;SDS011;6358;50.760;0.282;2023-01-16T16:30:23;2.80;;;1.30;;
12585;SDS011;6358;50.760;0.282;2023-01-16T16:32:50;1.27;;;1.17;;
12585;SDS011;6358;50.760;0.282;2023-01-16T16:35:18;1.13;;;1.00;;
12585;SDS011;6358;50.760;0.282;2023-01-16T16:37:45;1.53;;;1.20;;
12585;SDS011;6358;50.760;0.282;2023-01-16T16:40:15;1.73;;;1.20;;
12585;SDS011;6358;50.760;0.282;2023-01-16T16:45:11;3.50;;;1.10;;
12585;SDS011;6358;50.760;0.282;2023-01-16T16:47:40;1.20;;;1.10;;
12585;SDS011;6358;50.760;0.282;2023-01-16T16:53:02;1.17;;;0.90;;
12585;SDS011;6358;50.760;0.282;2023-01-16T16:55:33;1.03;;;0.97;;
12585;SDS011;6358;50.760;0.282;2023-01-16T16:58:01;1.10;;;1.00;;
12585;SDS011;6358;50.760;0.282;2023-01-16T17:00:27;2.03;;;0.90;;
12585;SDS011;6358;50.760;0.282;2023-01-16T17:02:57;1.00;;;0.90;;
12585;SDS011;6358;50.760;0.282;2023-01-16T17:05:27;0.90;;;0.90;;
12585;SDS011;6358;50.760;0.282;2023-01-16T17:07:53;1.10;;;1.00;;
12585;SDS011;6358;50.760;0.282;2023-01-16T17:10:19;1.57;;;0.73;;
12585;SDS011;6358;50.760;0.282;2023-01-16T17:12:46;1.90;;;0.90;;
12585;SDS011;6358;50.760;0.282;2023-01-16T17:15:12;0.80;;;0.80;;
12585;SDS011;6358;50.760;0.282;2023-01-16T17:17:41;1.23;;;0.90;;
12585;SDS011;6358;50.760;0.282;2023-01-16T17:20:16;1.00;;;1.00;;
12585;SDS011;6358;50.760;0.282;2023-01-16T17:22:43;1.37;;;0.90;;
12585;SDS011;6358;50.760;0.282;2023-01-16T17:25:13;1.00;;;0.90;;
12585;SDS011;6358;50.760;0.282;2023-01-16T17:27:49;1.73;;;0.90;;
12585;SDS011;6358;50.760;0.282;2023-01-16T17:30:16;0.90;;;0.80;;
12585;SDS011;6358;50.760;0.282;2023-01-16T17:32:42;1.03;;;0.80;;
12585;SDS011;6358;50.760;0.282;2023-01-16T17:35:12;0.70;;;0.70;;
12585;SDS011;6358;50.760;0.282;2023-01-16T17:37:38;0.97;;;0.97;;
12585;SDS011;6358;50.760;0.282;2023-01-16T17:40:04;1.00;;;0.90;;
12585;SDS011;6358;50.760;0.282;2023-01-16T17:42:30;0.80;;;0.80;;
12585;SDS011;6358;50.760;0.282;2023-01-16T17:48:09;0.83;;;0.83;;
12585;SDS011;6358;50.760;0.282;2023-01-16T17:50:35;0.83;;;0.80;;
12585;SDS011;6358;50.760;0.282;2023-01-16T17:53:01;0.70;;;0.70;;
12585;SDS011;6358;50.760;0.282;2023-01-16T17:55:28;0.90;;;0.70;;
12585;SDS011;6358;50.760;0.282;2023-01-16T17:58:13;1.03;;;0.90;;
12585;SDS011;6358;50.760;0.282;2023-01-16T18:00:39;1.00;;;0.90;;
12585;SDS011;6358;50.760;0.282;2023-01-16T18:03:06;1.37;;;1.00;;
12585;SDS011;6358;50.760;0.282;2023-01-16T18:05:32;1.03;;;0.90;;
12585;SDS011;6358;50.760;0.282;2023-01-16T18:07:58;1.20;;;1.00;;
12585;SDS011;6358;50.760;0.282;2023-01-16T18:10:24;1.30;;;0.83;;